Time;durP1;ratioP1;P1;durP2;ratioP2;P2;SDS_P1;SDS_P2;PMS_P1;PMS_P2;Temp;Humidity;BMP_temperature;BMP_pressure;BME280_temperature;BME280_humidity;BME280_pressure;Samples;Min_cycle;Max_cycle;Signal;HPM_P1;HPM_P2
2023/11/23 00:01:18;;;;;;;14.70;12.57;;;3.40;99.90;;;;;;5034438;28;20170;-73
2023/11/23 00:03:44;;;;;;;15.33;12.23;;;3.40;99.90;;;;;;5028102;28;20415;-73
2023/11/23 00:06:09;;;;;;;16.67;13.80;;;3.30;99.90;;;;;;5014248;28;20279;-72
2023/11/23 00:08:35;;;;;;;15.43;13.73;;;3.30;99.90;;;;;;5014237;28;20195;-72
2023/11/23 00:11:00;;;;;;;16.00;13.90;;;3.30;99.90;;;;;;5014457;28;20176;-72
2023/11/23 00:13:26;;;;;;;15.07;13.57;;;3.40;99.90;;;;;;5017513;28;20178;-73
2023/11/23 00:15:51;;;;;;;15.27;13.67;;;3.40;99.90;;;;;;5033864;28;20203;-70
2023/11/23 00:18:17;;;;;;;15.23;13.63;;;3.30;99.90;;;;;;5034055;28;20195;-73
2023/11/23 00:20:44;;;;;;;17.50;14.90;;;3.30;99.90;;;;;;5033771;28;20171;-71
2023/11/23 00:23:09;;;;;;;15.53;13.17;;;3.30;99.90;;;;;;5032751;28;20246;-72
2023/11/23 00:25:35;;;;;;;13.93;12.43;;;3.30;99.90;;;;;;5013912;28;20589;-74
2023/11/23 00:28:01;;;;;;;16.17;13.80;;;3.30;99.90;;;;;;5013889;28;20176;-72
2023/11/23 00:30:27;;;;;;;16.67;14.97;;;3.20;99.90;;;;;;5013180;28;20590;-73
2023/11/23 00:32:53;;;;;;;17.07;14.70;;;3.20;99.90;;;;;;5013746;28;20399;-72
2023/11/23 00:35:19;;;;;;;15.67;12.97;;;3.20;99.90;;;;;;5032141;28;20410;-72
2023/11/23 00:37:44;;;;;;;16.67;13.60;;;3.20;99.90;;;;;;5033412;28;20576;-73
2023/11/23 00:40:12;;;;;;;16.93;15.10;;;3.20;99.90;;;;;;5033540;28;20171;-72
2023/11/23 00:42:38;;;;;;;17.80;15.23;;;3.30;99.90;;;;;;5033789;28;20172;-74
2023/11/23 00:45:04;;;;;;;16.70;14.33;;;3.30;99.90;;;;;;5017188;28;20493;-72
2023/11/23 00:47:30;;;;;;;16.67;14.43;;;3.10;99.90;;;;;;5013603;28;20176;-73
2023/11/23 00:49:56;;;;;;;17.87;15.50;;;3.10;99.90;;;;;;5013604;28;20407;-72
2023/11/23 00:52:21;;;;;;;18.10;14.87;;;3.10;99.90;;;;;;5013590;28;20167;-72
2023/11/23 00:54:47;;;;;;;15.57;13.90;;;3.20;99.90;;;;;;5027310;28;20175;-72
2023/11/23 00:57:13;;;;;;;19.83;16.00;;;3.20;99.90;;;;;;5033154;28;20656;-72
2023/11/23 00:59:38;;;;;;;17.43;14.57;;;3.20;99.90;;;;;;5033355;28;20236;-72
2023/11/23 01:02:05;;;;;;;16.50;14.20;;;3.30;99.90;;;;;;5033297;28;20413;-72
2023/11/23 01:04:31;;;;;;;18.50;16.03;;;3.30;99.90;;;;;;5026737;28;20175;-73
2023/11/23 01:06:56;;;;;;;15.43;13.57;;;3.40;99.90;;;;;;5033050;28;20454;-73
2023/11/23 01:09:22;;;;;;;18.30;15.40;;;3.40;99.90;;;;;;5033237;28;20924;-72
2023/11/23 01:11:48;;;;;;;16.13;14.10;;;3.40;99.90;;;;;;5033392;28;20175;-71
2023/11/23 01:14:14;;;;;;;16.27;14.40;;;3.50;99.90;;;;;;5024395;28;20195;-72
2023/11/23 01:16:39;;;;;;;16.57;13.77;;;3.50;99.90;;;;;;5013351;28;20175;-70
2023/11/23 01:19:05;;;;;;;18.57;16.30;;;3.50;99.90;;;;;;5013178;28;20521;-72
2023/11/23 01:21:30;;;;;;;17.80;14.03;;;3.50;99.90;;;;;;5012761;28;20168;-73
2023/11/23 01:23:56;;;;;;;18.53;14.60;;;3.60;99.90;;;;;;5019426;28;20262;-72
2023/11/23 01:26:22;;;;;;;16.40;14.27;;;3.70;99.90;;;;;;5032752;28;20281;-71
2023/11/23 01:28:47;;;;;;;18.90;16.37;;;3.70;99.90;;;;;;5032731;28;20610;-72
2023/11/23 01:31:13;;;;;;;16.13;14.10;;;3.80;99.90;;;;;;5031803;28;20174;-73
2023/11/23 01:33:39;;;;;;;17.07;14.30;;;3.80;99.90;;;;;;5027813;28;20176;-72
2023/11/23 01:36:05;;;;;;;18.40;14.63;;;3.90;99.90;;;;;;5013009;28;20478;-71
2023/11/23 01:38:30;;;;;;;18.43;15.73;;;3.80;99.90;;;;;;5011734;28;20196;-71
2023/11/23 01:40:56;;;;;;;16.67;13.47;;;3.80;99.90;;;;;;5016719;28;20413;-72
2023/11/23 01:43:22;;;;;;;16.57;14.77;;;3.80;99.90;;;;;;5018619;28;20176;-72
2023/11/23 01:45:47;;;;;;;16.27;13.53;;;3.80;99.90;;;;;;5036911;28;20561;-70
2023/11/23 01:48:14;;;;;;;15.73;13.83;;;3.80;99.90;;;;;;5036455;28;20207;-72
2023/11/23 01:50:43;;;;;;;17.10;15.27;;;3.80;99.90;;;;;;5036899;28;20540;-72
2023/11/23 01:53:12;;;;;;;15.57;13.97;;;3.90;99.90;;;;;;5036736;28;20904;-71
2023/11/23 01:55:38;;;;;;;17.00;14.40;;;3.90;99.90;;;;;;4997117;28;20443;-73
2023/11/23 01:58:06;;;;;;;17.37;14.90;;;3.90;99.90;;;;;;4997042;28;20466;-72
2023/11/23 02:00:32;;;;;;;16.80;14.60;;;3.90;99.90;;;;;;4997102;28;20791;-73
2023/11/23 02:03:00;;;;;;;16.53;14.23;;;3.90;99.90;;;;;;4997288;28;20424;-72
2023/11/23 02:05:26;;;;;;;17.10;15.17;;;4.00;99.90;;;;;;5031467;28;20496;-72
2023/11/23 02:07:52;;;;;;;16.27;14.57;;;4.00;99.90;;;;;;5036842;28;20430;-71
2023/11/23 02:10:21;;;;;;;17.77;14.83;;;4.00;99.90;;;;;;5036209;28;20964;-73
2023/11/23 02:12:50;;;;;;;17.37;15.30;;;4.00;99.90;;;;;;5036175;28;20773;-72
2023/11/23 02:15:17;;;;;;;16.83;13.93;;;4.00;99.90;;;;;;5018336;28;20422;-72
2023/11/23 02:17:43;;;;;;;15.93;14.07;;;4.00;99.90;;;;;;5016425;28;20415;-72
2023/11/23 02:20:10;;;;;;;15.23;13.67;;;3.90;99.90;;;;;;5016210;28;20897;-73
2023/11/23 02:22:36;;;;;;;17.47;15.27;;;3.80;99.90;;;;;;5016505;28;20190;-72
2023/11/23 02:25:04;;;;;;;19.93;15.83;;;3.80;99.90;;;;;;5030575;28;20449;-73
2023/11/23 02:27:29;;;;;;;17.50;15.60;;;3.80;99.90;;;;;;5035838;28;20410;-71
2023/11/23 02:29:55;;;;;;;18.10;13.93;;;3.80;99.90;;;;;;5035851;28;20409;-72
2023/11/23 02:32:20;;;;;;;16.63;14.40;;;3.80;99.90;;;;;;5036087;28;20172;-72
2023/11/23 02:34:46;;;;;;;16.03;14.30;;;3.80;99.90;;;;;;5023656;28;20251;-72
2023/11/23 02:37:11;;;;;;;18.83;15.93;;;3.80;99.90;;;;;;5016212;28;20205;-71
2023/11/23 02:39:39;;;;;;;15.47;13.60;;;3.80;99.90;;;;;;5015885;28;20196;-72
2023/11/23 02:42:05;;;;;;;17.97;14.43;;;3.80;99.90;;;;;;5015879;28;20168;-72
2023/11/23 02:44:31;;;;;;;18.70;15.83;;;3.80;99.90;;;;;;5025639;28;20912;-72
2023/11/23 02:46:56;;;;;;;15.17;13.57;;;3.80;99.90;;;;;;5035960;28;20637;-72
2023/11/23 02:49:22;;;;;;;18.00;15.07;;;3.80;99.90;;;;;;5035319;28;20199;-72
2023/11/23 02:51:47;;;;;;;15.80;13.67;;;3.70;99.90;;;;;;5035586;28;20254;-73
2023/11/23 02:54:13;;;;;;;15.30;13.37;;;3.70;99.90;;;;;;5027688;28;20179;-72
2023/11/23 02:56:39;;;;;;;16.33;14.20;;;3.60;99.90;;;;;;5015536;28;20650;-72
2023/11/23 02:59:04;;;;;;;14.97;12.77;;;3.60;99.90;;;;;;5015582;28;20242;-73
2023/11/23 03:01:32;;;;;;;15.53;13.00;;;3.50;99.90;;;;;;5025485;28;20250;-73
2023/11/23 03:03:57;;;;;;;15.50;12.47;;;3.70;99.90;;;;;;5030053;28;20164;-74
2023/11/23 03:06:23;;;;;;;14.73;12.70;;;3.70;99.90;;;;;;5015486;28;20466;-72
2023/11/23 03:08:51;;;;;;;14.43;12.13;;;3.60;99.90;;;;;;5006227;28;20236;-73
2023/11/23 03:11:25;;;;;;;16.90;12.73;;;3.50;99.90;;;;;;5009984;28;20874;-71
2023/11/23 03:13:52;;;;;;;15.57;12.40;;;3.60;99.90;;;;;;5019356;28;20386;-73
2023/11/23 03:16:18;;;;;;;15.20;12.77;;;3.60;99.90;;;;;;5035007;28;20410;-73
2023/11/23 03:18:44;;;;;;;15.80;13.90;;;3.60;99.90;;;;;;5034874;28;20959;-72
2023/11/23 03:21:10;;;;;;;14.67;11.07;;;3.70;99.90;;;;;;5035177;28;20183;-73
2023/11/23 03:23:36;;;;;;;14.67;12.57;;;3.60;99.90;;;;;;5032653;28;21071;-74
2023/11/23 03:26:01;;;;;;;14.17;12.67;;;3.60;99.90;;;;;;5014660;28;20483;-73
2023/11/23 03:28:27;;;;;;;15.60;13.10;;;3.60;99.90;;;;;;5014726;28;20215;-73
2023/11/23 03:30:53;;;;;;;13.57;11.90;;;3.60;99.90;;;;;;5015111;28;20164;-73
2023/11/23 03:33:19;;;;;;;15.27;12.47;;;3.70;99.90;;;;;;5017377;28;20203;-73
2023/11/23 03:35:45;;;;;;;12.97;11.63;;;3.70;99.90;;;;;;5034095;28;20456;-70
2023/11/23 03:38:11;;;;;;;14.17;11.90;;;3.80;99.90;;;;;;5034800;28;20829;-72
2023/11/23 03:40:39;;;;;;;18.03;14.10;;;3.60;99.90;;;;;;5034941;28;20221;-72
2023/11/23 03:43:05;;;;;;;15.33;11.93;;;3.60;99.90;;;;;;5034395;28;20172;-73
2023/11/23 03:45:31;;;;;;;14.27;12.40;;;3.60;99.90;;;;;;5017121;28;20453;-73
2023/11/23 03:47:58;;;;;;;13.60;11.50;;;3.60;99.90;;;;;;5038340;23;20251;-70
2023/11/23 03:50:24;;;;;;;14.70;11.30;;;3.70;99.90;;;;;;5015088;28;20191;-71
2023/11/23 03:52:50;;;;;;;13.20;11.80;;;3.70;99.90;;;;;;5014409;28;20477;-71
2023/11/23 03:55:16;;;;;;;24.90;12.33;;;3.80;99.90;;;;;;5029453;28;20167;-71
2023/11/23 03:57:43;;;;;;;13.77;11.23;;;3.80;99.90;;;;;;5034189;28;20455;-72
2023/11/23 04:00:10;;;;;;;12.00;10.47;;;3.80;99.90;;;;;;5033995;28;20179;-71
2023/11/23 04:02:35;;;;;;;14.37;11.37;;;3.70;99.90;;;;;;5034573;28;20433;-70
2023/11/23 04:05:01;;;;;;;13.50;11.43;;;3.50;99.90;;;;;;5019932;28;20489;-71
2023/11/23 04:07:27;;;;;;;12.87;11.13;;;3.60;99.90;;;;;;5014436;28;20167;-71
2023/11/23 04:09:52;;;;;;;15.57;12.50;;;3.50;99.90;;;;;;5013973;28;20191;-71
2023/11/23 04:12:18;;;;;;;16.30;11.63;;;3.40;99.90;;;;;;5014382;28;20251;-71
2023/11/23 04:14:43;;;;;;;16.13;13.00;;;3.30;99.90;;;;;;5022902;28;20223;-71
2023/11/23 04:17:09;;;;;;;12.10;10.50;;;3.20;99.90;;;;;;5033780;28;20676;-70
2023/11/23 04:19:34;;;;;;;13.27;11.87;;;3.30;99.90;;;;;;5033911;28;20213;-71
2023/11/23 04:22:00;;;;;;;14.30;11.13;;;3.40;99.90;;;;;;5033661;28;20202;-70
2023/11/23 04:24:26;;;;;;;15.70;12.77;;;3.50;99.90;;;;;;5024540;28;20175;-71
2023/11/23 04:26:52;;;;;;;13.40;11.30;;;3.60;99.90;;;;;;5014089;28;20194;-71
2023/11/23 04:29:18;;;;;;;16.33;12.70;;;3.60;99.90;;;;;;5013869;28;20434;-70
2023/11/23 04:31:45;;;;;;;13.87;11.27;;;3.50;99.90;;;;;;5013964;28;20426;-70
2023/11/23 04:34:10;;;;;;;14.10;10.50;;;3.50;99.90;;;;;;5019147;28;20464;-70
2023/11/23 04:36:36;;;;;;;15.87;12.50;;;3.60;99.90;;;;;;5033332;28;20410;-70
2023/11/23 04:39:03;;;;;;;13.93;11.00;;;3.50;99.90;;;;;;5033336;28;20191;-70
2023/11/23 04:41:28;;;;;;;14.60;11.83;;;3.40;99.90;;;;;;5033272;28;20406;-70
2023/11/23 04:43:54;;;;;;;15.63;12.00;;;3.50;99.90;;;;;;5030329;28;20929;-70
2023/11/23 04:46:20;;;;;;;13.30;10.40;;;3.60;99.90;;;;;;5013571;28;20188;-70
2023/11/23 04:48:47;;;;;;;15.87;12.30;;;3.60;99.90;;;;;;5013422;28;20192;-69
2023/11/23 04:51:13;;;;;;;14.60;12.17;;;3.60;99.90;;;;;;5013463;28;20486;-70
2023/11/23 04:53:38;;;;;;;12.07;10.77;;;3.70;99.90;;;;;;5021782;28;20565;-71
2023/11/23 04:56:05;;;;;;;13.57;10.87;;;3.60;99.90;;;;;;5013407;28;20171;-70
2023/11/23 04:58:30;;;;;;;11.93;9.70;;;3.60;99.90;;;;;;5013459;28;20192;-71
2023/11/23 05:00:56;;;;;;;11.07;9.83;;;3.60;99.90;;;;;;5013735;28;20501;-71
2023/11/23 05:03:21;;;;;;;15.10;11.30;;;3.60;99.90;;;;;;5013996;28;20175;-70
2023/11/23 05:05:47;;;;;;;13.80;8.63;;;3.60;99.90;;;;;;5031335;28;20199;-71
2023/11/23 05:08:13;;;;;;;12.43;10.10;;;3.60;99.90;;;;;;5032764;28;20197;-71
2023/11/23 05:10:38;;;;;;;13.73;9.70;;;3.60;99.90;;;;;;5033056;28;20284;-70
2023/11/23 05:13:04;;;;;;;12.53;9.97;;;3.50;99.90;;;;;;5031504;28;20202;-71
2023/11/23 05:15:29;;;;;;;10.80;9.27;;;3.50;99.90;;;;;;5016653;28;20184;-70
2023/11/23 05:17:55;;;;;;;11.10;8.50;;;3.50;99.90;;;;;;5013025;28;20168;-70
2023/11/23 05:20:22;;;;;;;11.00;8.13;;;3.40;99.90;;;;;;5013083;28;20167;-70
2023/11/23 05:22:48;;;;;;;13.30;10.17;;;3.40;99.90;;;;;;5013134;28;20251;-69
2023/11/23 05:25:13;;;;;;;13.57;10.73;;;3.30;99.90;;;;;;5026417;28;20509;-71
2023/11/23 05:27:39;;;;;;;15.47;10.60;;;3.40;99.90;;;;;;5024294;28;20601;-69
2023/11/23 05:30:05;;;;;;;10.77;9.50;;;3.20;99.90;;;;;;5011619;28;20202;-70
2023/11/23 05:32:31;;;;;;;10.60;8.80;;;3.20;99.90;;;;;;5013374;28;20517;-70
2023/11/23 05:34:56;;;;;;;10.93;9.30;;;3.10;99.90;;;;;;5023800;28;20413;-70
2023/11/23 05:37:22;;;;;;;12.37;10.03;;;3.10;99.90;;;;;;5032612;28;20171;-70
2023/11/23 05:39:48;;;;;;;11.97;9.77;;;3.00;99.90;;;;;;5032448;28;20241;-70
2023/11/23 05:42:14;;;;;;;11.50;9.27;;;3.00;99.90;;;;;;5032340;28;20179;-70
2023/11/23 05:44:39;;;;;;;11.13;9.60;;;3.00;99.90;;;;;;5007374;28;20430;-72
2023/11/23 05:47:06;;;;;;;12.77;9.60;;;2.90;99.90;;;;;;5003452;28;20620;-72
2023/11/23 05:49:31;;;;;;;12.43;10.87;;;3.00;99.90;;;;;;5003348;28;20554;-72
2023/11/23 05:51:57;;;;;;;12.13;9.93;;;2.90;99.90;;;;;;5003534;28;20298;-72
2023/11/23 05:54:22;;;;;;;12.73;9.83;;;2.90;99.90;;;;;;5018455;28;20206;-71
2023/11/23 05:56:48;;;;;;;13.20;10.03;;;3.00;99.90;;;;;;5032533;28;20203;-71
2023/11/23 05:59:13;;;;;;;10.93;9.07;;;3.00;99.90;;;;;;5032462;28;20199;-70
2023/11/23 06:01:39;;;;;;;10.80;8.60;;;3.10;99.90;;;;;;5032597;28;20179;-71
2023/11/23 06:04:05;;;;;;;61.43;52.33;;;3.10;99.90;;;;;;5029013;28;20600;-70
2023/11/23 06:06:30;;;;;;;21.93;17.57;;;3.10;99.90;;;;;;5012642;28;20697;-71
2023/11/23 06:08:56;;;;;;;11.03;9.13;;;3.20;99.90;;;;;;5012696;28;20192;-70
2023/11/23 06:11:22;;;;;;;11.57;9.57;;;3.20;99.90;;;;;;5012804;28;20259;-71
2023/11/23 06:13:48;;;;;;;11.67;9.73;;;3.30;99.90;;;;;;5013368;28;20497;-71
2023/11/23 06:16:14;;;;;;;10.53;7.70;;;3.40;99.90;;;;;;5032196;28;20172;-70
2023/11/23 06:18:40;;;;;;;11.30;9.43;;;3.30;99.90;;;;;;5032301;28;20199;-71
2023/11/23 06:21:06;;;;;;;15.40;10.77;;;3.30;99.90;;;;;;5032818;28;20812;-71
2023/11/23 06:23:32;;;;;;;11.50;8.00;;;3.30;99.90;;;;;;5031542;28;20417;-71
2023/11/23 06:25:58;;;;;;;10.93;7.97;;;3.30;99.90;;;;;;5013632;28;20454;-71
2023/11/23 06:28:24;;;;;;;12.20;9.20;;;3.20;99.90;;;;;;5014184;28;20980;-71
2023/11/23 06:30:50;;;;;;;12.20;9.00;;;3.10;99.90;;;;;;5015721;28;20183;-71
2023/11/23 06:33:16;;;;;;;10.00;8.10;;;3.10;99.90;;;;;;5015744;28;20898;-70
2023/11/23 06:35:42;;;;;;;9.80;8.80;;;3.20;99.90;;;;;;5030518;28;20409;-71
2023/11/23 06:38:07;;;;;;;10.70;7.67;;;2.90;99.90;;;;;;5036078;28;20605;-71
2023/11/23 06:40:36;;;;;;;12.47;9.90;;;2.90;99.90;;;;;;5035518;28;20614;-70
2023/11/23 06:43:02;;;;;;;12.17;8.90;;;3.00;99.90;;;;;;5035485;28;20258;-70
2023/11/23 06:45:28;;;;;;;12.10;10.50;;;3.10;99.90;;;;;;5021098;28;20930;-70
2023/11/23 06:47:53;;;;;;;11.77;8.67;;;3.10;99.90;;;;;;5015164;28;20411;-71
2023/11/23 06:50:20;;;;;;;11.30;8.83;;;3.00;99.90;;;;;;5015610;28;20187;-71
2023/11/23 06:52:46;;;;;;;10.73;8.50;;;3.00;99.90;;;;;;5014040;28;20255;-71
2023/11/23 06:55:13;;;;;;;14.53;9.73;;;3.00;99.90;;;;;;5027224;28;20493;-70
2023/11/23 06:57:46;;;;;;;10.30;8.13;;;3.00;99.90;;;;;;5035170;28;20614;-71
2023/11/23 07:00:23;;;;;;;12.13;9.77;;;3.00;99.90;;;;;;5032337;28;20432;-71
2023/11/23 07:02:50;;;;;;;13.60;11.83;;;2.90;99.90;;;;;;5015741;28;20390;-70
2023/11/23 07:05:19;;;;;;;12.00;9.00;;;2.90;99.90;;;;;;5026098;28;20414;-70
2023/11/23 07:07:47;;;;;;;10.17;8.00;;;2.90;99.90;;;;;;5034176;28;20414;-71
2023/11/23 07:10:19;;;;;;;15.03;9.17;;;3.00;99.90;;;;;;5034222;28;20509;-70
2023/11/23 07:12:45;;;;;;;10.37;8.10;;;3.00;99.90;;;;;;5034890;28;20420;-70
2023/11/23 07:15:12;;;;;;;9.53;7.80;;;3.10;99.90;;;;;;5023247;28;20839;-71
2023/11/23 07:17:38;;;;;;;8.27;7.30;;;3.10;99.90;;;;;;5013752;28;20426;-72
2023/11/23 07:20:05;;;;;;;8.90;7.77;;;3.20;99.90;;;;;;5015250;28;20905;-71
2023/11/23 07:22:31;;;;;;;8.50;7.23;;;3.20;99.90;;;;;;5015920;28;20419;-71
2023/11/23 07:24:57;;;;;;;8.90;7.40;;;3.30;99.90;;;;;;5024525;28;20486;-71
2023/11/23 07:27:22;;;;;;;8.57;6.97;;;3.30;99.90;;;;;;5034793;28;20668;-71
2023/11/23 07:29:49;;;;;;;8.50;6.83;;;3.20;99.90;;;;;;5033472;28;20191;-71
2023/11/23 07:32:15;;;;;;;8.27;6.27;;;3.20;99.90;;;;;;5033187;28;20179;-70
2023/11/23 07:34:41;;;;;;;7.73;6.87;;;3.20;99.90;;;;;;5025917;28;20921;-72
2023/11/23 07:37:08;;;;;;;8.47;6.77;;;3.20;99.90;;;;;;5013007;28;20175;-71
2023/11/23 07:39:33;;;;;;;7.50;6.80;;;3.20;99.90;;;;;;5014497;28;20467;-71
2023/11/23 07:41:59;;;;;;;8.03;6.03;;;3.20;99.90;;;;;;5014497;28;20411;-71
2023/11/23 07:44:25;;;;;;;8.33;6.83;;;3.40;99.90;;;;;;5019019;28;20183;-71
2023/11/23 07:46:51;;;;;;;6.93;6.20;;;3.30;99.90;;;;;;5034218;28;20186;-71
2023/11/23 07:49:16;;;;;;;7.23;5.67;;;3.60;99.90;;;;;;5032661;28;20453;-71
2023/11/23 07:51:42;;;;;;;8.10;5.73;;;3.80;99.90;;;;;;5034207;28;20171;-71
2023/11/23 07:54:09;;;;;;;5.83;5.27;;;3.90;99.90;;;;;;5031853;28;20322;-71
2023/11/23 07:56:34;;;;;;;6.53;5.60;;;4.10;99.90;;;;;;5014124;28;20172;-71
2023/11/23 07:59:00;;;;;;;6.40;4.90;;;4.20;99.90;;;;;;5014273;28;20457;-71
2023/11/23 08:01:26;;;;;;;9.80;5.47;;;4.20;99.90;;;;;;5014221;28;20635;-72
2023/11/23 08:03:51;;;;;;;7.70;5.50;;;4.20;99.90;;;;;;5013746;28;20190;-72
2023/11/23 08:06:17;;;;;;;5.40;4.90;;;4.20;99.90;;;;;;5033710;28;20792;-73
2023/11/23 08:08:43;;;;;;;8.50;5.67;;;4.20;99.90;;;;;;5033833;28;20240;-73
2023/11/23 08:11:09;;;;;;;5.37;4.70;;;4.40;99.90;;;;;;5034259;28;20310;-72
2023/11/23 08:13:35;;;;;;;6.00;5.40;;;4.50;99.90;;;;;;5033954;28;20159;-72
2023/11/23 08:16:02;;;;;;;5.53;4.80;;;4.70;99.90;;;;;;5016278;28;20409;-74
2023/11/23 08:18:28;;;;;;;5.53;4.60;;;4.90;99.90;;;;;;5018499;28;20196;-75
2023/11/23 08:20:54;;;;;;;6.07;4.87;;;5.10;99.90;;;;;;5022651;28;20412;-73
2023/11/23 08:23:19;;;;;;;4.70;4.07;;;5.20;99.90;;;;;;5019923;28;20164;-74
2023/11/23 08:25:47;;;;;;;4.63;4.13;;;5.30;99.90;;;;;;5035695;28;20202;-74
2023/11/23 08:28:12;;;;;;;4.33;3.93;;;5.50;99.90;;;;;;5037718;28;20251;-73
2023/11/23 08:30:38;;;;;;;6.00;3.87;;;5.70;99.90;;;;;;5033945;28;20405;-74
2023/11/23 08:33:04;;;;;;;3.80;3.40;;;5.80;99.90;;;;;;5033396;28;20167;-73
2023/11/23 08:35:29;;;;;;;5.37;4.40;;;5.90;99.90;;;;;;5020785;28;20174;-74
2023/11/23 08:37:55;;;;;;;7.43;4.40;;;6.20;99.90;;;;;;5013589;28;20176;-73
2023/11/23 08:40:21;;;;;;;6.70;3.70;;;6.20;99.90;;;;;;5014675;28;20165;-73
2023/11/23 08:42:46;;;;;;;9.47;5.30;;;6.40;99.90;;;;;;5013640;28;20202;-71
2023/11/23 08:45:12;;;;;;;6.23;3.83;;;6.40;99.90;;;;;;5023657;28;20436;-70
2023/11/23 08:47:38;;;;;;;5.53;4.00;;;6.50;99.90;;;;;;5033187;28;20204;-75
2023/11/23 08:50:05;;;;;;;4.03;3.60;;;6.80;99.90;;;;;;5032669;28;20201;-72
2023/11/23 08:52:31;;;;;;;4.50;4.03;;;6.90;99.90;;;;;;5033390;28;20424;-73
2023/11/23 08:54:59;;;;;;;5.67;4.20;;;7.10;99.90;;;;;;5025294;28;20413;-72
2023/11/23 08:57:25;;;;;;;5.03;3.87;;;7.10;99.90;;;;;;5013428;28;20257;-74
2023/11/23 08:59:50;;;;;;;5.97;4.33;;;7.00;99.90;;;;;;5013330;28;20458;-74
2023/11/23 09:02:16;;;;;;;5.90;4.37;;;6.80;99.90;;;;;;5032007;28;20256;-71
2023/11/23 09:04:42;;;;;;;5.50;3.83;;;6.90;99.90;;;;;;5027100;28;20233;-73
2023/11/23 09:07:08;;;;;;;6.67;4.50;;;7.10;99.90;;;;;;5013177;28;20448;-73
2023/11/23 09:09:35;;;;;;;6.20;4.00;;;7.00;99.90;;;;;;5013145;28;20189;-72
2023/11/23 09:12:01;;;;;;;4.93;4.40;;;7.20;99.90;;;;;;5013056;28;20468;-72
2023/11/23 09:14:27;;;;;;;6.10;4.70;;;7.20;99.90;;;;;;5017064;28;20405;-72
2023/11/23 09:16:53;;;;;;;4.80;4.40;;;7.30;99.90;;;;;;5029742;28;20548;-73
2023/11/23 09:19:18;;;;;;;4.57;3.40;;;7.50;99.90;;;;;;5032672;28;20210;-73
2023/11/23 09:21:46;;;;;;;4.10;3.67;;;7.40;99.90;;;;;;5033099;28;20181;-74
2023/11/23 09:24:14;;;;;;;6.10;3.50;;;7.40;99.90;;;;;;5031492;28;20170;-73
2023/11/23 09:26:42;;;;;;;3.93;3.53;;;7.20;99.90;;;;;;5013199;28;20454;-70
2023/11/23 09:29:08;;;;;;;4.13;3.73;;;7.20;99.90;;;;;;5013346;28;20450;-71
2023/11/23 09:31:34;;;;;;;4.77;3.90;;;7.30;99.90;;;;;;5013562;28;20408;-73
2023/11/23 09:34:00;;;;;;;3.87;3.40;;;7.40;99.90;;;;;;5013516;28;20190;-73
2023/11/23 09:36:29;;;;;;;6.23;4.07;;;7.40;99.90;;;;;;5018444;28;20402;-72
2023/11/23 09:38:55;;;;;;;4.57;3.73;;;7.50;99.90;;;;;;5012816;28;20438;-73
2023/11/23 09:41:24;;;;;;;4.13;3.57;;;7.40;99.90;;;;;;5013129;28;20444;-73
2023/11/23 09:43:51;;;;;;;4.10;3.60;;;7.70;99.90;;;;;;5012854;28;20410;-72
2023/11/23 09:46:19;;;;;;;6.17;4.10;;;7.80;99.90;;;;;;5030818;28;20532;-74
2023/11/23 09:48:45;;;;;;;6.90;3.93;;;7.90;99.90;;;;;;5059353;22;20490;-74
2023/11/23 09:51:11;;;;;;;6.67;4.07;;;8.00;99.90;;;;;;5045920;28;20413;-74
2023/11/23 09:53:37;;;;;;;5.47;3.63;;;8.20;99.90;;;;;;5032591;28;20391;-73
2023/11/23 09:56:04;;;;;;;8.60;3.53;;;8.00;99.90;;;;;;5032811;28;20416;-74
2023/11/23 09:58:30;;;;;;;3.80;3.30;;;7.90;99.90;;;;;;5032465;28;20396;-73
2023/11/23 10:01:02;;;;;;;5.13;3.60;;;8.00;99.90;;;;;;5032821;28;20406;-71
2023/11/23 10:03:31;;;;;;;4.07;3.40;;;8.10;99.90;;;;;;5036419;28;20386;-73
2023/11/23 10:05:57;;;;;;;5.23;3.53;;;8.20;99.90;;;;;;5036114;28;20444;-73
2023/11/23 10:08:23;;;;;;;5.43;3.90;;;8.20;99.90;;;;;;5036254;28;20547;-73
2023/11/23 10:10:51;;;;;;;4.87;3.47;;;8.00;99.90;;;;;;5036318;28;20216;-72
2023/11/23 10:13:19;;;;;;;4.23;3.40;;;8.10;99.90;;;;;;5036257;28;20425;-72
2023/11/23 10:15:45;;;;;;;3.77;3.33;;;8.20;99.90;;;;;;5036310;28;20765;-73
2023/11/23 10:18:11;;;;;;;9.00;3.70;;;8.30;99.90;;;;;;5036266;28;20484;-72
2023/11/23 10:20:37;;;;;;;3.53;3.23;;;8.00;99.90;;;;;;5036058;28;21039;-74
2023/11/23 10:23:04;;;;;;;3.37;3.10;;;8.10;99.90;;;;;;5035994;28;20549;-70
2023/11/23 10:25:35;;;;;;;3.87;3.10;;;8.30;99.90;;;;;;5036172;28;20194;-71
2023/11/23 10:28:03;;;;;;;4.77;3.07;;;8.40;99.90;;;;;;5040143;28;20415;-73
2023/11/23 10:30:30;;;;;;;4.70;3.23;;;8.50;99.90;;;;;;5037135;28;20520;-73
2023/11/23 10:32:56;;;;;;;5.37;2.80;;;8.20;99.90;;;;;;5035104;28;20933;-72
2023/11/23 10:35:30;;;;;;;4.37;2.83;;;8.40;99.90;;;;;;5035964;28;20403;-73
2023/11/23 10:37:56;;;;;;;5.60;2.97;;;8.40;99.90;;;;;;5036373;28;20397;-71
2023/11/23 10:40:24;;;;;;;3.50;3.13;;;8.50;99.90;;;;;;5035849;28;20422;-74
2023/11/23 10:42:51;;;;;;;4.93;3.10;;;8.30;99.90;;;;;;5035964;28;20163;-73
2023/11/23 10:45:21;;;;;;;3.40;3.10;;;8.20;99.90;;;;;;5036164;28;20424;-74
2023/11/23 10:47:47;;;;;;;4.37;3.60;;;8.30;99.90;;;;;;5035864;28;20804;-77
2023/11/23 10:50:14;;;;;;;6.03;3.70;;;8.50;99.90;;;;;;5035398;28;20444;-73
2023/11/23 10:52:43;;;;;;;4.50;2.90;;;8.50;99.90;;;;;;5035580;28;20915;-73
2023/11/23 10:55:10;;;;;;;3.83;3.43;;;8.40;99.90;;;;;;5035735;28;20936;-74
2023/11/23 10:57:39;;;;;;;3.70;3.40;;;8.50;99.90;;;;;;5035678;28;20399;-72
2023/11/23 11:00:08;;;;;;;3.43;3.13;;;8.60;99.90;;;;;;5035482;28;20941;-75
2023/11/23 11:02:34;;;;;;;3.47;3.00;;;8.70;99.90;;;;;;5035836;28;20412;-75
2023/11/23 11:05:00;;;;;;;5.37;3.50;;;8.60;99.90;;;;;;5035205;28;20395;-76
2023/11/23 11:07:27;;;;;;;3.30;3.00;;;8.40;99.90;;;;;;5034067;28;20244;-74
2023/11/23 11:10:05;;;;;;;3.93;3.33;;;8.50;99.90;;;;;;5034837;28;20511;-74
2023/11/23 11:12:37;;;;;;;4.70;4.20;;;8.50;99.90;;;;;;5035161;28;20443;-72
2023/11/23 11:15:06;;;;;;;3.37;3.07;;;8.50;99.90;;;;;;5034503;28;20419;-73
2023/11/23 11:17:39;;;;;;;3.90;3.47;;;8.40;99.90;;;;;;5035415;28;20486;-73
2023/11/23 11:20:09;;;;;;;5.30;3.50;;;8.60;99.90;;;;;;5035231;28;20417;-73
2023/11/23 11:22:35;;;;;;;4.30;3.20;;;8.70;99.90;;;;;;5034824;28;20915;-73
2023/11/23 11:25:01;;;;;;;5.00;3.50;;;8.60;99.90;;;;;;5034745;28;20410;-73
2023/11/23 11:27:30;;;;;;;3.80;2.93;;;8.80;99.90;;;;;;5034913;28;20214;-74
2023/11/23 11:29:58;;;;;;;3.40;3.10;;;8.80;99.90;;;;;;5034524;28;20199;-72
2023/11/23 11:32:32;;;;;;;4.83;3.80;;;8.90;99.90;;;;;;5033561;28;20936;-73
2023/11/23 11:35:03;;;;;;;4.20;3.50;;;8.90;99.90;;;;;;5034614;28;20391;-73
2023/11/23 11:37:31;;;;;;;3.70;3.27;;;8.80;99.90;;;;;;5034518;28;20986;-72
2023/11/23 11:39:59;;;;;;;4.10;3.70;;;8.70;99.90;;;;;;5034694;28;20435;-74
2023/11/23 11:42:24;;;;;;;4.90;3.47;;;8.80;99.90;;;;;;5034328;28;20956;-74
2023/11/23 11:44:51;;;;;;;3.60;3.30;;;8.90;99.90;;;;;;5034281;28;20506;-74
2023/11/23 11:47:17;;;;;;;4.33;3.93;;;8.90;99.90;;;;;;5034216;28;20737;-74
2023/11/23 11:49:43;;;;;;;6.33;4.23;;;8.90;99.90;;;;;;5034140;28;20989;-74
2023/11/23 11:52:12;;;;;;;4.20;3.20;;;9.00;99.90;;;;;;5034638;28;20427;-75
2023/11/23 11:54:38;;;;;;;4.00;3.47;;;9.00;99.90;;;;;;5034143;28;20256;-75
2023/11/23 11:57:04;;;;;;;4.40;3.90;;;9.10;99.90;;;;;;5034491;28;20445;-75
2023/11/23 11:59:30;;;;;;;4.60;3.90;;;9.10;99.90;;;;;;5034314;28;20471;-75
2023/11/23 12:01:56;;;;;;;4.00;3.30;;;9.30;99.90;;;;;;5034046;28;20403;-75
2023/11/23 12:04:22;;;;;;;3.70;3.40;;;9.40;99.90;;;;;;5033988;28;20417;-74
2023/11/23 12:06:52;;;;;;;3.60;3.30;;;9.50;99.90;;;;;;5034064;28;20684;-73
2023/11/23 12:09:19;;;;;;;3.07;2.87;;;9.40;99.90;;;;;;5034346;28;20187;-73
2023/11/23 12:11:49;;;;;;;3.30;3.00;;;9.50;99.90;;;;;;5034165;28;20403;-74
2023/11/23 12:14:15;;;;;;;3.03;2.80;;;9.20;99.90;;;;;;5033942;28;20410;-74
2023/11/23 12:16:42;;;;;;;3.43;2.40;;;9.30;99.90;;;;;;5034101;28;20455;-73
2023/11/23 12:19:19;;;;;;;3.57;3.27;;;9.60;99.90;;;;;;5034504;28;20446;-74
2023/11/23 12:21:56;;;;;;;5.03;2.60;;;9.80;99.90;;;;;;5034109;28;20746;-74
2023/11/23 12:24:30;;;;;;;4.70;2.47;;;10.00;99.90;;;;;;5033560;28;20397;-73
2023/11/23 12:26:56;;;;;;;3.80;2.83;;;10.00;99.90;;;;;;5032870;28;20431;-74
2023/11/23 12:29:23;;;;;;;3.60;2.67;;;10.00;99.90;;;;;;5033700;28;20425;-74
2023/11/23 12:31:50;;;;;;;2.40;2.20;;;9.90;99.90;;;;;;5034129;28;20969;-73
2023/11/23 12:34:15;;;;;;;3.03;2.73;;;9.70;99.90;;;;;;5034082;28;20541;-73
2023/11/23 12:36:43;;;;;;;2.60;2.40;;;9.70;99.90;;;;;;5033343;28;20417;-73
2023/11/23 12:39:09;;;;;;;2.30;2.10;;;9.80;99.90;;;;;;5033246;28;20273;-72
2023/11/23 12:41:35;;;;;;;2.40;2.20;;;9.70;99.90;;;;;;5033194;28;20492;-73
2023/11/23 12:44:00;;;;;;;2.23;2.03;;;9.80;99.90;;;;;;5033160;28;20219;-74